sensor_id;sensor_type;location;lat;lon;timestamp;temperature;humidity
32502;DHT22;18952;52.516;13.460;2023-11-21T00:02:11;6.90;99.90
32502;DHT22;18952;52.516;13.460;2023-11-21T00:04:37;6.90;99.90
32502;DHT22;18952;52.516;13.460;2023-11-21T00:07:04;6.80;99.90
32502;DHT22;18952;52.516;13.460;2023-11-21T00:09:32;6.70;99.90
32502;DHT22;18952;52.516;13.460;2023-11-21T00:11:59;6.60;99.90
32502;DHT22;18952;52.516;13.460;2023-11-21T00:14:26;6.60;99.90
32502;DHT22;18952;52.516;13.460;2023-11-21T00:16:53;6.50;99.90
32502;DHT22;18952;52.516;13.460;2023-11-21T00:19:20;6.50;99.90
32502;DHT22;18952;52.516;13.460;2023-11-21T00:21:47;6.50;99.90
32502;DHT22;18952;52.516;13.460;2023-11-21T00:24:14;6.40;99.90
32502;DHT22;18952;52.516;13.460;2023-11-21T00:26:40;6.40;99.90
32502;DHT22;18952;52.516;13.460;2023-11-21T00:29:07;6.40;99.90
32502;DHT22;18952;52.516;13.460;2023-11-21T00:31:34;6.50;99.90
32502;DHT22;18952;52.516;13.460;2023-11-21T00:34:04;6.40;99.90
32502;DHT22;18952;52.516;13.460;2023-11-21T00:36:31;6.40;99.90
32502;DHT22;18952;52.516;13.460;2023-11-21T00:38:58;6.20;99.90
32502;DHT22;18952;52.516;13.460;2023-11-21T00:41:25;6.10;99.90
32502;DHT22;18952;52.516;13.460;2023-11-21T00:43:54;6.00;99.90
32502;DHT22;18952;52.516;13.460;2023-11-21T00:46:21;6.00;99.90
32502;DHT22;18952;52.516;13.460;2023-11-21T00:48:47;5.90;99.90
32502;DHT22;18952;52.516;13.460;2023-11-21T00:51:14;5.90;99.90
32502;DHT22;18952;52.516;13.460;2023-11-21T00:53:41;5.80;99.90
32502;DHT22;18952;52.516;13.460;2023-11-21T00:56:08;5.80;99.90
32502;DHT22;18952;52.516;13.460;2023-11-21T00:58:35;5.90;99.90
32502;DHT22;18952;52.516;13.460;2023-11-21T01:01:02;5.90;99.90
32502;DHT22;18952;52.516;13.460;2023-11-21T01:03:29;5.90;99.90
32502;DHT22;18952;52.516;13.460;2023-11-21T01:05:56;6.00;99.90
32502;DHT22;18952;52.516;13.460;2023-11-21T01:08:23;6.00;99.90
32502;DHT22;18952;52.516;13.460;2023-11-21T01:10:50;6.00;99.90
32502;DHT22;18952;52.516;13.460;2023-11-21T01:13:17;6.00;99.90
32502;DHT22;18952;52.516;13.460;2023-11-21T01:15:43;5.90;99.90
32502;DHT22;18952;52.516;13.460;2023-11-21T01:18:10;5.90;99.90
32502;DHT22;18952;52.516;13.460;2023-11-21T01:20:37;5.90;99.90
32502;DHT22;18952;52.516;13.460;2023-11-21T01:23:04;5.90;99.90
32502;DHT22;18952;52.516;13.460;2023-11-21T01:25:31;5.90;99.90
32502;DHT22;18952;52.516;13.460;2023-11-21T01:27:58;5.90;99.90
32502;DHT22;18952;52.516;13.460;2023-11-21T01:30:24;5.90;99.90
32502;DHT22;18952;52.516;13.460;2023-11-21T01:32:51;5.90;99.90
32502;DHT22;18952;52.516;13.460;2023-11-21T01:35:18;5.90;99.90
32502;DHT22;18952;52.516;13.460;2023-11-21T01:37:45;5.80;99.90
32502;DHT22;18952;52.516;13.460;2023-11-21T01:40:12;5.70;99.90
32502;DHT22;18952;52.516;13.460;2023-11-21T01:42:39;5.60;99.90
32502;DHT22;18952;52.516;13.460;2023-11-21T01:45:07;5.50;99.90
32502;DHT22;18952;52.516;13.460;2023-11-21T01:47:34;5.40;99.90
32502;DHT22;18952;52.516;13.460;2023-11-21T01:50:02;5.40;99.90
32502;DHT22;18952;52.516;13.460;2023-11-21T01:52:29;5.30;99.90
32502;DHT22;18952;52.516;13.460;2023-11-21T01:54:57;5.30;99.90
32502;DHT22;18952;52.516;13.460;2023-11-21T01:57:25;5.40;99.90
32502;DHT22;18952;52.516;13.460;2023-11-21T01:59:54;5.50;99.90
32502;DHT22;18952;52.516;13.460;2023-11-21T02:02:21;5.40;99.90
32502;DHT22;18952;52.516;13.460;2023-11-21T02:04:48;5.40;99.90
32502;DHT22;18952;52.516;13.460;2023-11-21T02:07:15;5.30;99.90
32502;DHT22;18952;52.516;13.460;2023-11-21T02:09:42;5.30;99.90
32502;DHT22;18952;52.516;13.460;2023-11-21T02:12:08;5.20;99.90
32502;DHT22;18952;52.516;13.460;2023-11-21T02:14:35;5.10;99.90
32502;DHT22;18952;52.516;13.460;2023-11-21T02:17:03;5.10;99.90
32502;DHT22;18952;52.516;13.460;2023-11-21T02:19:30;5.10;99.90
32502;DHT22;18952;52.516;13.460;2023-11-21T02:21:57;5.20;99.90
32502;DHT22;18952;52.516;13.460;2023-11-21T02:24:25;5.20;99.90
32502;DHT22;18952;52.516;13.460;2023-11-21T02:26:53;5.10;99.90
32502;DHT22;18952;52.516;13.460;2023-11-21T02:29:20;5.10;99.90
32502;DHT22;18952;52.516;13.460;2023-11-21T02:31:52;5.20;99.90
32502;DHT22;18952;52.516;13.460;2023-11-21T02:34:19;5.20;99.90
32502;DHT22;18952;52.516;13.460;2023-11-21T02:36:47;5.20;99.90
32502;DHT22;18952;52.516;13.460;2023-11-21T02:39:13;5.20;99.90
32502;DHT22;18952;52.516;13.460;2023-11-21T02:41:40;5.30;99.90
32502;DHT22;18952;52.516;13.460;2023-11-21T02:44:07;5.30;99.90
32502;DHT22;18952;52.516;13.460;2023-11-21T02:46:35;5.20;99.90
32502;DHT22;18952;52.516;13.460;2023-11-21T02:49:03;5.20;99.90
32502;DHT22;18952;52.516;13.460;2023-11-21T02:51:30;5.30;99.90
32502;DHT22;18952;52.516;13.460;2023-11-21T02:53:57;5.10;99.90
32502;DHT22;18952;52.516;13.460;2023-11-21T02:56:25;5.10;99.90
32502;DHT22;18952;52.516;13.460;2023-11-21T02:58:54;5.10;99.90
32502;DHT22;18952;52.516;13.460;2023-11-21T03:01:22;5.20;99.90
32502;DHT22;18952;52.516;13.460;2023-11-21T03:03:48;5.20;99.90
32502;DHT22;18952;52.516;13.460;2023-11-21T03:06:15;5.20;99.90
32502;DHT22;18952;52.516;13.460;2023-11-21T03:08:42;5.30;99.90
32502;DHT22;18952;52.516;13.460;2023-11-21T03:11:09;5.20;99.90
32502;DHT22;18952;52.516;13.460;2023-11-21T03:13:36;5.30;99.90
32502;DHT22;18952;52.516;13.460;2023-11-21T03:16:03;5.20;99.90
32502;DHT22;18952;52.516;13.460;2023-11-21T03:18:30;5.30;99.90
32502;DHT22;18952;52.516;13.460;2023-11-21T03:20:56;5.20;99.90
32502;DHT22;18952;52.516;13.460;2023-11-21T03:23:23;5.20;99.90
32502;DHT22;18952;52.516;13.460;2023-11-21T03:25:50;5.20;99.90
32502;DHT22;18952;52.516;13.460;2023-11-21T03:28:17;5.20;99.90
32502;DHT22;18952;52.516;13.460;2023-11-21T03:30:44;5.20;99.90
32502;DHT22;18952;52.516;13.460;2023-11-21T03:33:10;5.30;99.90
32502;DHT22;18952;52.516;13.460;2023-11-21T03:35:37;5.30;99.90
32502;DHT22;18952;52.516;13.460;2023-11-21T03:38:04;5.30;99.90
32502;DHT22;18952;52.516;13.460;2023-11-21T03:40:31;5.20;99.90
32502;DHT22;18952;52.516;13.460;2023-11-21T03:42:58;5.20;99.90
32502;DHT22;18952;52.516;13.460;2023-11-21T03:45:25;5.10;99.90
32502;DHT22;18952;52.516;13.460;2023-11-21T03:47:52;5.00;99.90
32502;DHT22;18952;52.516;13.460;2023-11-21T03:50:18;5.00;99.90
32502;DHT22;18952;52.516;13.460;2023-11-21T03:52:45;5.10;99.90
32502;DHT22;18952;52.516;13.460;2023-11-21T03:55:12;5.10;99.90
32502;DHT22;18952;52.516;13.460;2023-11-21T03:57:39;5.10;99.90
32502;DHT22;18952;52.516;13.460;2023-11-21T04:00:06;5.10;99.90
32502;DHT22;18952;52.516;13.460;2023-11-21T04:02:34;5.00;99.90
32502;DHT22;18952;52.516;13.460;2023-11-21T04:05:01;4.90;99.90
32502;DHT22;18952;52.516;13.460;2023-11-21T04:07:28;4.90;99.90
32502;DHT22;18952;52.516;13.460;2023-11-21T04:09:55;4.80;99.90
32502;DHT22;18952;52.516;13.460;2023-11-21T04:12:22;4.80;99.90
32502;DHT22;18952;52.516;13.460;2023-11-21T04:14:49;4.80;99.90
32502;DHT22;18952;52.516;13.460;2023-11-21T04:17:20;4.70;99.90
32502;DHT22;18952;52.516;13.460;2023-11-21T04:19:47;4.50;99.90
32502;DHT22;18952;52.516;13.460;2023-11-21T04:22:13;4.40;99.90
32502;DHT22;18952;52.516;13.460;2023-11-21T04:24:40;4.40;99.90
32502;DHT22;18952;52.516;13.460;2023-11-21T04:27:07;4.40;99.90
32502;DHT22;18952;52.516;13.460;2023-11-21T04:29:34;4.30;99.90
32502;DHT22;18952;52.516;13.460;2023-11-21T04:32:01;4.40;99.90
32502;DHT22;18952;52.516;13.460;2023-11-21T04:34:28;4.40;99.90
32502;DHT22;18952;52.516;13.460;2023-11-21T04:36:55;4.40;99.90
32502;DHT22;18952;52.516;13.460;2023-11-21T04:39:22;4.50;99.90
32502;DHT22;18952;52.516;13.460;2023-11-21T04:41:49;4.60;99.90
32502;DHT22;18952;52.516;13.460;2023-11-21T04:44:16;4.60;99.90
32502;DHT22;18952;52.516;13.460;2023-11-21T04:46:43;4.60;99.90
32502;DHT22;18952;52.516;13.460;2023-11-21T04:49:10;4.50;99.90
32502;DHT22;18952;52.516;13.460;2023-11-21T04:51:37;4.50;99.90
32502;DHT22;18952;52.516;13.460;2023-11-21T04:54:04;4.40;99.90
32502;DHT22;18952;52.516;13.460;2023-11-21T04:56:31;4.30;99.90
32502;DHT22;18952;52.516;13.460;2023-11-21T04:58:58;4.30;99.90
32502;DHT22;18952;52.516;13.460;2023-11-21T05:01:25;4.20;99.90
32502;DHT22;18952;52.516;13.460;2023-11-21T05:03:52;4.30;99.90
32502;DHT22;18952;52.516;13.460;2023-11-21T05:06:19;4.30;99.90
32502;DHT22;18952;52.516;13.460;2023-11-21T05:08:46;4.30;99.90
32502;DHT22;18952;52.516;13.460;2023-11-21T05:11:23;4.30;99.90
32502;DHT22;18952;52.516;13.460;2023-11-21T05:13:50;4.40;99.90
32502;DHT22;18952;52.516;13.460;2023-11-21T05:16:17;4.40;99.90
32502;DHT22;18952;52.516;13.460;2023-11-21T05:18:44;4.40;99.90
32502;DHT22;18952;52.516;13.460;2023-11-21T05:21:11;4.50;99.90
32502;DHT22;18952;52.516;13.460;2023-11-21T05:23:38;4.40;99.90
32502;DHT22;18952;52.516;13.460;2023-11-21T05:26:05;4.50;99.90
32502;DHT22;18952;52.516;13.460;2023-11-21T05:28:31;4.50;99.90
32502;DHT22;18952;52.516;13.460;2023-11-21T05:30:58;4.50;99.90
32502;DHT22;18952;52.516;13.460;2023-11-21T05:33:41;4.40;99.90
32502;DHT22;18952;52.516;13.460;2023-11-21T05:36:08;4.40;99.90
32502;DHT22;18952;52.516;13.460;2023-11-21T05:38:36;4.50;99.90
32502;DHT22;18952;52.516;13.460;2023-11-21T05:41:03;4.50;99.90
32502;DHT22;18952;52.516;13.460;2023-11-21T05:43:30;4.30;99.90
32502;DHT22;18952;52.516;13.460;2023-11-21T05:45:57;4.30;99.90
32502;DHT22;18952;52.516;13.460;2023-11-21T05:48:24;4.30;99.90
32502;DHT22;18952;52.516;13.460;2023-11-21T05:50:51;4.30;99.90
32502;DHT22;18952;52.516;13.460;2023-11-21T05:53:17;4.30;99.90
32502;DHT22;18952;52.516;13.460;2023-11-21T05:55:44;4.30;99.90
32502;DHT22;18952;52.516;13.460;2023-11-21T05:58:11;4.20;99.90
32502;DHT22;18952;52.516;13.460;2023-11-21T06:00:38;4.10;99.90
32502;DHT22;18952;52.516;13.460;2023-11-21T06:03:05;4.10;99.90
32502;DHT22;18952;52.516;13.460;2023-11-21T06:05:34;4.10;99.90
32502;DHT22;18952;52.516;13.460;2023-11-21T06:08:06;4.20;99.90
32502;DHT22;18952;52.516;13.460;2023-11-21T06:10:33;4.10;99.90
32502;DHT22;18952;52.516;13.460;2023-11-21T06:13:01;4.10;99.90
32502;DHT22;18952;52.516;13.460;2023-11-21T06:15:30;4.10;99.90
32502;DHT22;18952;52.516;13.460;2023-11-21T06:17:57;4.10;99.90
32502;DHT22;18952;52.516;13.460;2023-11-21T06:20:32;4.10;99.90
32502;DHT22;18952;52.516;13.460;2023-11-21T06:22:58;4.10;99.90
32502;DHT22;18952;52.516;13.460;2023-11-21T06:25:25;4.00;99.90
32502;DHT22;18952;52.516;13.460;2023-11-21T06:27:53;4.00;99.90
32502;DHT22;18952;52.516;13.460;2023-11-21T06:30:20;4.00;99.90
32502;DHT22;18952;52.516;13.460;2023-11-21T06:32:47;4.10;99.90
32502;DHT22;18952;52.516;13.460;2023-11-21T06:35:15;4.10;99.90
32502;DHT22;18952;52.516;13.460;2023-11-21T06:37:44;4.10;99.90
32502;DHT22;18952;52.516;13.460;2023-11-21T06:40:11;4.10;99.90
32502;DHT22;18952;52.516;13.460;2023-11-21T06:42:37;4.10;99.90
32502;DHT22;18952;52.516;13.460;2023-11-21T06:45:05;4.00;99.90
32502;DHT22;18952;52.516;13.460;2023-11-21T06:47:32;4.00;99.90
32502;DHT22;18952;52.516;13.460;2023-11-21T06:49:59;4.00;99.90
32502;DHT22;18952;52.516;13.460;2023-11-21T06:52:26;4.00;99.90
32502;DHT22;18952;52.516;13.460;2023-11-21T06:54:53;4.00;99.90
32502;DHT22;18952;52.516;13.460;2023-11-21T06:57:23;4.00;99.90
32502;DHT22;18952;52.516;13.460;2023-11-21T06:59:50;4.10;99.90
32502;DHT22;18952;52.516;13.460;2023-11-21T07:02:17;4.00;99.90
32502;DHT22;18952;52.516;13.460;2023-11-21T07:04:47;3.90;99.90
32502;DHT22;18952;52.516;13.460;2023-11-21T07:07:14;3.90;99.90
32502;DHT22;18952;52.516;13.460;2023-11-21T07:09:40;4.00;99.90
32502;DHT22;18952;52.516;13.460;2023-11-21T07:12:07;4.00;99.90
32502;DHT22;18952;52.516;13.460;2023-11-21T07:14:35;3.90;99.90
32502;DHT22;18952;52.516;13.460;2023-11-21T07:17:02;3.90;99.90
32502;DHT22;18952;52.516;13.460;2023-11-21T07:19:29;3.90;99.90
32502;DHT22;18952;52.516;13.460;2023-11-21T07:21:56;4.00;99.90
32502;DHT22;18952;52.516;13.460;2023-11-21T07:24:23;4.00;99.90
32502;DHT22;18952;52.516;13.460;2023-11-21T07:26:53;3.90;99.90
32502;DHT22;18952;52.516;13.460;2023-11-21T07:29:20;3.90;99.90
32502;DHT22;18952;52.516;13.460;2023-11-21T07:31:47;3.90;99.90
32502;DHT22;18952;52.516;13.460;2023-11-21T07:34:14;3.90;99.90
32502;DHT22;18952;52.516;13.460;2023-11-21T07:36:41;4.00;99.90
32502;DHT22;18952;52.516;13.460;2023-11-21T07:39:08;4.10;99.90
32502;DHT22;18952;52.516;13.460;2023-11-21T07:41:35;4.10;99.90
32502;DHT22;18952;52.516;13.460;2023-11-21T07:44:02;4.20;99.90
32502;DHT22;18952;52.516;13.460;2023-11-21T07:46:29;4.20;99.90
32502;DHT22;18952;52.516;13.460;2023-11-21T07:48:56;4.30;99.90
32502;DHT22;18952;52.516;13.460;2023-11-21T07:51:23;4.30;99.90
32502;DHT22;18952;52.516;13.460;2023-11-21T07:53:50;4.40;99.90
32502;DHT22;18952;52.516;13.460;2023-11-21T07:56:17;4.40;99.90
32502;DHT22;18952;52.516;13.460;2023-11-21T07:58:44;4.50;99.90
32502;DHT22;18952;52.516;13.460;2023-11-21T08:01:11;4.60;99.90
32502;DHT22;18952;52.516;13.460;2023-11-21T08:03:37;4.60;99.90
32502;DHT22;18952;52.516;13.460;2023-11-21T08:06:05;4.70;99.90
32502;DHT22;18952;52.516;13.460;2023-11-21T08:08:33;4.70;99.90
32502;DHT22;18952;52.516;13.460;2023-11-21T08:10:59;4.60;99.90
32502;DHT22;18952;52.516;13.460;2023-11-21T08:13:29;4.60;99.90
32502;DHT22;18952;52.516;13.460;2023-11-21T08:15:57;4.50;99.90
32502;DHT22;18952;52.516;13.460;2023-11-21T08:18:24;4.60;99.90
32502;DHT22;18952;52.516;13.460;2023-11-21T08:20:51;4.70;99.90
32502;DHT22;18952;52.516;13.460;2023-11-21T08:23:18;4.70;99.90
32502;DHT22;18952;52.516;13.460;2023-11-21T08:25:45;4.80;99.90
32502;DHT22;18952;52.516;13.460;2023-11-21T08:28:13;4.90;99.90
32502;DHT22;18952;52.516;13.460;2023-11-21T08:30:40;4.90;99.90
32502;DHT22;18952;52.516;13.460;2023-11-21T08:33:07;4.90;99.90
32502;DHT22;18952;52.516;13.460;2023-11-21T08:35:35;4.90;99.90
32502;DHT22;18952;52.516;13.460;2023-11-21T08:38:05;4.90;99.90
32502;DHT22;18952;52.516;13.460;2023-11-21T08:40:32;4.90;99.90
32502;DHT22;18952;52.516;13.460;2023-11-21T08:42:59;4.90;99.90
32502;DHT22;18952;52.516;13.460;2023-11-21T08:45:26;4.90;99.90
32502;DHT22;18952;52.516;13.460;2023-11-21T08:47:53;4.90;99.90
32502;DHT22;18952;52.516;13.460;2023-11-21T08:50:23;4.90;99.90
32502;DHT22;18952;52.516;13.460;2023-11-21T08:52:50;4.90;99.90
32502;DHT22;18952;52.516;13.460;2023-11-21T08:55:17;4.90;99.90
32502;DHT22;18952;52.516;13.460;2023-11-21T08:57:44;4.90;99.90
32502;DHT22;18952;52.516;13.460;2023-11-21T09:00:11;4.90;99.90
32502;DHT22;18952;52.516;13.460;2023-11-21T09:02:39;4.90;99.90
32502;DHT22;18952;52.516;13.460;2023-11-21T09:05:06;5.00;99.90
32502;DHT22;18952;52.516;13.460;2023-11-21T09:07:36;5.00;99.90
32502;DHT22;18952;52.516;13.460;2023-11-21T09:10:06;4.90;99.90
32502;DHT22;18952;52.516;13.460;2023-11-21T09:12:34;4.70;99.90
32502;DHT22;18952;52.516;13.460;2023-11-21T09:15:08;4.50;99.90
32502;DHT22;18952;52.516;13.460;2023-11-21T09:17:35;4.40;99.90
32502;DHT22;18952;52.516;13.460;2023-11-21T09:20:03;4.40;99.90
32502;DHT22;18952;52.516;13.460;2023-11-21T09:22:30;4.40;99.90
32502;DHT22;18952;52.516;13.460;2023-11-21T09:24:57;4.40;99.90
32502;DHT22;18952;52.516;13.460;2023-11-21T09:27:24;4.20;99.90
32502;DHT22;18952;52.516;13.460;2023-11-21T09:29:51;4.10;99.90
32502;DHT22;18952;52.516;13.460;2023-11-21T09:32:21;4.20;99.90
32502;DHT22;18952;52.516;13.460;2023-11-21T09:34:49;4.20;99.90
32502;DHT22;18952;52.516;13.460;2023-11-21T09:37:17;4.20;99.90
32502;DHT22;18952;52.516;13.460;2023-11-21T09:39:44;4.30;99.90
32502;DHT22;18952;52.516;13.460;2023-11-21T09:42:13;4.30;99.90
32502;DHT22;18952;52.516;13.460;2023-11-21T09:47:52;4.60;99.90
32502;DHT22;18952;52.516;13.460;2023-11-21T09:50:20;4.70;99.90
32502;DHT22;18952;52.516;13.460;2023-11-21T09:53:18;4.70;99.90
32502;DHT22;18952;52.516;13.460;2023-11-21T09:55:47;4.80;99.90
32502;DHT22;18952;52.516;13.460;2023-11-21T09:58:15;4.70;99.90
32502;DHT22;18952;52.516;13.460;2023-11-21T10:00:46;4.60;99.90
32502;DHT22;18952;52.516;13.460;2023-11-21T10:03:13;4.70;99.90
32502;DHT22;18952;52.516;13.460;2023-11-21T10:05:42;4.70;99.90
32502;DHT22;18952;52.516;13.460;2023-11-21T10:08:10;4.60;99.90
32502;DHT22;18952;52.516;13.460;2023-11-21T10:10:43;4.50;99.90
32502;DHT22;18952;52.516;13.460;2023-11-21T10:13:11;4.60;99.90
32502;DHT22;18952;52.516;13.460;2023-11-21T10:15:41;4.70;99.90
32502;DHT22;18952;52.516;13.460;2023-11-21T10:18:08;4.80;99.90
32502;DHT22;18952;52.516;13.460;2023-11-21T10:20:35;4.80;99.90
32502;DHT22;18952;52.516;13.460;2023-11-21T10:23:02;4.90;99.90
32502;DHT22;18952;52.516;13.460;2023-11-21T10:25:30;4.70;99.90
32502;DHT22;18952;52.516;13.460;2023-11-21T10:27:59;4.60;99.90
32502;DHT22;18952;52.516;13.460;2023-11-21T10:30:30;4.50;99.90
32502;DHT22;18952;52.516;13.460;2023-11-21T10:33:01;4.50;99.90
32502;DHT22;18952;52.516;13.460;2023-11-21T10:35:44;4.50;99.90
32502;DHT22;18952;52.516;13.460;2023-11-21T10:38:11;4.50;99.90
32502;DHT22;18952;52.516;13.460;2023-11-21T10:40:38;4.50;99.90
32502;DHT22;18952;52.516;13.460;2023-11-21T10:43:09;4.50;99.90
32502;DHT22;18952;52.516;13.460;2023-11-21T10:45:40;4.50;99.90
32502;DHT22;18952;52.516;13.460;2023-11-21T10:48:08;4.40;99.90
32502;DHT22;18952;52.516;13.460;2023-11-21T10:50:36;4.30;99.90
32502;DHT22;18952;52.516;13.460;2023-11-21T10:53:04;4.30;99.90
32502;DHT22;18952;52.516;13.460;2023-11-21T10:55:32;4.50;99.90
32502;DHT22;18952;52.516;13.460;2023-11-21T10:58:01;4.50;99.90
32502;DHT22;18952;52.516;13.460;2023-11-21T11:00:29;4.40;99.90
32502;DHT22;18952;52.516;13.460;2023-11-21T11:02:57;4.20;99.90
32502;DHT22;18952;52.516;13.460;2023-11-21T11:05:28;4.00;99.90
32502;DHT22;18952;52.516;13.460;2023-11-21T11:08:00;4.00;99.90
32502;DHT22;18952;52.516;13.460;2023-11-21T11:10:31;4.10;99.90
32502;DHT22;18952;52.516;13.460;2023-11-21T11:12:59;4.20;99.90
32502;DHT22;18952;52.516;13.460;2023-11-21T11:15:27;4.10;99.90
32502;DHT22;18952;52.516;13.460;2023-11-21T11:17:54;4.00;99.90
32502;DHT22;18952;52.516;13.460;2023-11-21T11:20:27;4.00;99.90
32502;DHT22;18952;52.516;13.460;2023-11-21T11:32:12;3.70;99.90
32502;DHT22;18952;52.516;13.460;2023-11-21T11:35:00;3.80;99.90
32502;DHT22;18952;52.516;13.460;2023-11-21T11:37:29;3.90;99.90
32502;DHT22;18952;52.516;13.460;2023-11-21T11:39:56;3.80;99.90
32502;DHT22;18952;52.516;13.460;2023-11-21T11:42:23;3.80;99.90
32502;DHT22;18952;52.516;13.460;2023-11-21T11:44:51;3.70;99.90
32502;DHT22;18952;52.516;13.460;2023-11-21T11:47:25;3.80;99.90
32502;DHT22;18952;52.516;13.460;2023-11-21T11:55:12;4.00;99.90
32502;DHT22;18952;52.516;13.460;2023-11-21T11:57:55;4.00;99.90
32502;DHT22;18952;52.516;13.460;2023-11-21T12:00:34;3.90;99.90
32502;DHT22;18952;52.516;13.460;2023-11-21T12:03:09;4.00;99.90
32502;DHT22;18952;52.516;13.460;2023-11-21T12:05:40;4.10;99.90
32502;DHT22;18952;52.516;13.460;2023-11-21T12:08:22;4.20;99.90
32502;DHT22;18952;52.516;13.460;2023-11-21T12:10:53;4.10;99.90
32502;DHT22;18952;52.516;13.460;2023-11-21T12:13:24;4.10;99.90
32502;DHT22;18952;52.516;13.460;2023-11-21T12:15:53;4.00;99.90
32502;DHT22;18952;52.516;13.460;2023-11-21T12:18:21;4.00;99.90
32502;DHT22;18952;52.516;13.460;2023-11-21T12:20:50;4.00;99.90
32502;DHT22;18952;52.516;13.460;2023-11-21T12:23:20;4.00;99.90
32502;DHT22;18952;52.516;13.460;2023-11-21T12:25:47;3.90;99.90
32502;DHT22;18952;52.516;13.460;2023-11-21T12:28:17;3.80;99.90
32502;DHT22;18952;52.516;13.460;2023-11-21T12:30:44;3.80;99.90
32502;DHT22;18952;52.516;13.460;2023-11-21T12:33:11;3.90;99.90
32502;DHT22;18952;52.516;13.460;2023-11-21T12:35:38;3.90;99.90
32502;DHT22;18952;52.516;13.460;2023-11-21T12:38:05;3.90;99.90
32502;DHT22;18952;52.516;13.460;2023-11-21T12:40:32;3.90;99.90
32502;DHT22;18952;52.516;13.460;2023-11-21T12:43:00;3.90;99.90
32502;DHT22;18952;52.516;13.460;2023-11-21T12:45:28;3.90;99.90
32502;DHT22;18952;52.516;13.460;2023-11-21T12:48:03;4.00;99.90
32502;DHT22;18952;52.516;13.460;2023-11-21T12:50:31;3.90;99.90
32502;DHT22;18952;52.516;13.460;2023-11-21T12:53:03;4.00;99.90
32502;DHT22;18952;52.516;13.460;2023-11-21T12:55:34;4.00;99.90
32502;DHT22;18952;52.516;13.460;2023-11-21T12:58:02;4.00;99.90
32502;DHT22;18952;52.516;13.460;2023-11-21T13:00:34;3.90;99.90
32502;DHT22;18952;52.516;13.460;2023-11-21T13:03:03;3.90;99.90
32502;DHT22;18952;52.516;13.460;2023-11-21T13:05:38;3.80;99.90
32502;DHT22;18952;52.516;13.460;2023-11-21T13:08:06;3.80;99.90
32502;DHT22;18952;52.516;13.460;2023-11-21T13:10:35;3.90;99.90
32502;DHT22;18952;52.516;13.460;2023-11-21T13:13:04;4.00;99.90
32502;DHT22;18952;52.516;13.460;2023-11-21T13:15:33;4.10;99.90
32502;DHT22;18952;52.516;13.460;2023-11-21T13:17:59;4.10;99.90
32502;DHT22;18952;52.516;13.460;2023-11-21T13:20:27;4.10;99.90
32502;DHT22;18952;52.516;13.460;2023-11-21T13:22:58;4.10;99.90
32502;DHT22;18952;52.516;13.460;2023-11-21T13:25:26;4.00;99.90
32502;DHT22;18952;52.516;13.460;2023-11-21T13:27:54;3.90;99.90
32502;DHT22;18952;52.516;13.460;2023-11-21T13:30:42;3.90;99.90
32502;DHT22;18952;52.516;13.460;2023-11-21T13:33:39;4.00;99.90
32502;DHT22;18952;52.516;13.460;2023-11-21T13:36:18;4.00;99.90
32502;DHT22;18952;52.516;13.460;2023-11-21T13:38:45;3.90;99.90
32502;DHT22;18952;52.516;13.460;2023-11-21T13:41:12;3.90;99.90
32502;DHT22;18952;52.516;13.460;2023-11-21T13:43:39;3.90;99.90
32502;DHT22;18952;52.516;13.460;2023-11-21T13:46:06;3.80;99.90
32502;DHT22;18952;52.516;13.460;2023-11-21T13:48:34;3.80;99.90
32502;DHT22;18952;52.516;13.460;2023-11-21T13:51:01;3.70;99.90
32502;DHT22;18952;52.516;13.460;2023-11-21T13:53:28;3.80;99.90
32502;DHT22;18952;52.516;13.460;2023-11-21T13:55:57;3.70;99.90
32502;DHT22;18952;52.516;13.460;2023-11-21T13:58:24;3.80;99.90
32502;DHT22;18952;52.516;13.460;2023-11-21T14:00:51;3.80;99.90
32502;DHT22;18952;52.516;13.460;2023-11-21T14:03:18;3.70;99.90
32502;DHT22;18952;52.516;13.460;2023-11-21T14:05:45;3.70;99.90
32502;DHT22;18952;52.516;13.460;2023-11-21T14:08:12;3.70;99.90
32502;DHT22;18952;52.516;13.460;2023-11-21T14:10:39;3.60;99.90
32502;DHT22;18952;52.516;13.460;2023-11-21T14:13:06;3.40;99.90
32502;DHT22;18952;52.516;13.460;2023-11-21T14:15:33;3.20;99.90
32502;DHT22;18952;52.516;13.460;2023-11-21T14:18:00;3.30;99.90
32502;DHT22;18952;52.516;13.460;2023-11-21T14:20:26;3.30;99.90
32502;DHT22;18952;52.516;13.460;2023-11-21T14:22:53;3.30;99.90
32502;DHT22;18952;52.516;13.460;2023-11-21T14:25:20;3.20;99.90
32502;DHT22;18952;52.516;13.460;2023-11-21T14:27:47;3.20;99.90
32502;DHT22;18952;52.516;13.460;2023-11-21T14:30:14;3.20;99.90
32502;DHT22;18952;52.516;13.460;2023-11-21T14:32:41;3.20;99.90
32502;DHT22;18952;52.516;13.460;2023-11-21T14:35:08;3.10;99.90
32502;DHT22;18952;52.516;13.460;2023-11-21T14:37:35;3.10;99.90
32502;DHT22;18952;52.516;13.460;2023-11-21T14:40:02;3.10;99.90
32502;DHT22;18952;52.516;13.460;2023-11-21T14:42:32;3.10;99.90
32502;DHT22;18952;52.516;13.460;2023-11-21T14:45:14;2.90;99.90
32502;DHT22;18952;52.516;13.460;2023-11-21T14:47:41;2.80;99.90
32502;DHT22;18952;52.516;13.460;2023-11-21T14:50:10;2.80;99.90
32502;DHT22;18952;52.516;13.460;2023-11-21T14:52:40;2.80;99.90
32502;DHT22;18952;52.516;13.460;2023-11-21T14:55:07;2.90;99.90
32502;DHT22;18952;52.516;13.460;2023-11-21T14:57:34;2.90;99.90
32502;DHT22;18952;52.516;13.460;2023-11-21T15:00:01;2.90;99.90
32502;DHT22;18952;52.516;13.460;2023-11-21T15:02:28;2.70;99.90
32502;DHT22;18952;52.516;13.460;2023-11-21T15:04:56;2.80;99.90
32502;DHT22;18952;52.516;13.460;2023-11-21T15:07:23;2.80;99.90
32502;DHT22;18952;52.516;13.460;2023-11-21T15:09:50;2.80;99.90
32502;DHT22;18952;52.516;13.460;2023-11-21T15:12:17;2.80;99.90
32502;DHT22;18952;52.516;13.460;2023-11-21T15:14:49;2.90;99.90
32502;DHT22;18952;52.516;13.460;2023-11-21T15:17:16;2.90;99.90
32502;DHT22;18952;52.516;13.460;2023-11-21T15:19:43;3.00;99.90
32502;DHT22;18952;52.516;13.460;2023-11-21T15:22:10;3.10;99.90
32502;DHT22;18952;52.516;13.460;2023-11-21T15:24:38;2.90;99.90
32502;DHT22;18952;52.516;13.460;2023-11-21T15:27:05;2.90;99.90
32502;DHT22;18952;52.516;13.460;2023-11-21T15:29:32;2.80;99.90
32502;DHT22;18952;52.516;13.460;2023-11-21T15:31:59;2.80;99.90
32502;DHT22;18952;52.516;13.460;2023-11-21T15:34:25;2.70;99.90
32502;DHT22;18952;52.516;13.460;2023-11-21T15:36:53;2.70;99.90
32502;DHT22;18952;52.516;13.460;2023-11-21T15:39:20;2.70;99.90
32502;DHT22;18952;52.516;13.460;2023-11-21T15:41:47;2.70;99.90
32502;DHT22;18952;52.516;13.460;2023-11-21T15:44:14;2.70;99.90
32502;DHT22;18952;52.516;13.460;2023-11-21T15:46:42;2.70;99.90
32502;DHT22;18952;52.516;13.460;2023-11-21T15:49:10;2.80;99.90
32502;DHT22;18952;52.516;13.460;2023-11-21T15:51:38;2.80;99.90
32502;DHT22;18952;52.516;13.460;2023-11-21T15:54:05;2.80;99.90